Terminal Aerodrome Forecast
Issued by NWS

Home | Current Version | Previous Version | Text Only | Print | Product List | Glossary On
Versions: 1 2 3 4 5 6 7 8 9 10 11 12 13 14 15 16 17 18 19 20 21 22 23 24 25 26
000
FTUS42 KJAX 311557 AAC
TAFVQQ
TAF AMD
KVQQ 311557Z 3116/0112 00000KT P6SM VCSH BKN025
      TEMPO 3116/3117 SCT025
     FM311900 21008KT P6SM VCTS BKN040CB
      TEMPO 3120/3124 3SM TSRA BKN040CB
     FM010200 21005KT P6SM SKC=

USA.gov is the U.S. government's official web portal to all federal, state and local government web resources and services.